Time;durP1;ratioP1;P1;durP2;ratioP2;P2;SDS_P1;SDS_P2;PMS_P1;PMS_P2;Temp;Humidity;BMP_temperature;BMP_pressure;BME280_temperature;BME280_humidity;BME280_pressure;Samples;Min_cycle;Max_cycle;Signal;HPM_P1;HPM_P2
2022/03/11 00:02:06;;;;;;;59.53;47.80;;;25.50;98.60;;;;;;4195475;28;20044;-69
2022/03/11 00:04:13;;;;;;;58.08;46.13;;;25.50;98.60;;;;;;4209852;28;20522;-71
2022/03/11 00:06:21;;;;;;;57.00;45.40;;;25.50;98.50;;;;;;4213245;28;20055;-71
2022/03/11 00:08:27;;;;;;;51.28;42.35;;;25.60;98.30;;;;;;4213140;28;20759;-69
2022/03/11 00:10:32;;;;;;;49.58;41.95;;;25.60;98.10;;;;;;4215693;28;20057;-70
2022/03/11 00:12:38;;;;;;;47.75;40.22;;;25.60;97.90;;;;;;4217178;28;20091;-70
2022/03/11 00:14:45;;;;;;;51.25;39.85;;;25.60;97.60;;;;;;4216882;28;20048;-70
2022/03/11 00:16:49;;;;;;;51.17;40.20;;;25.60;97.40;;;;;;4216507;28;20110;-69
2022/03/11 00:18:56;;;;;;;50.03;37.95;;;25.60;97.30;;;;;;4213283;28;20070;-71
2022/03/11 00:21:01;;;;;;;60.50;39.50;;;25.60;97.10;;;;;;4212856;28;20044;-69
2022/03/11 00:23:06;;;;;;;51.95;38.35;;;25.60;97.00;;;;;;4213323;28;20391;-70
2022/03/11 00:25:11;;;;;;;48.65;36.70;;;25.70;97.10;;;;;;4212301;28;20063;-69
2022/03/11 00:27:16;;;;;;;46.88;36.35;;;25.70;97.00;;;;;;4213909;28;20064;-72
2022/03/11 00:29:20;;;;;;;50.13;35.17;;;25.70;96.90;;;;;;4213439;28;20128;-69
2022/03/11 00:31:28;;;;;;;48.85;34.10;;;25.70;96.70;;;;;;4213405;28;20046;-68
2022/03/11 00:33:34;;;;;;;38.83;32.42;;;25.80;96.60;;;;;;4178558;28;20055;-69
2022/03/11 00:35:39;;;;;;;43.35;32.03;;;25.80;96.40;;;;;;4178793;28;20076;-69
2022/03/11 00:37:45;;;;;;;42.60;33.17;;;25.90;96.30;;;;;;4213942;28;20048;-69
2022/03/11 00:39:52;;;;;;;41.40;31.73;;;25.90;96.10;;;;;;4213532;28;20070;-69
2022/03/11 00:41:56;;;;;;;38.58;29.45;;;25.90;96.10;;;;;;4213342;28;20055;-69
2022/03/11 00:44:03;;;;;;;36.53;29.35;;;25.90;95.70;;;;;;4218277;28;20073;-69
2022/03/11 00:46:09;;;;;;;39.10;29.73;;;26.00;95.70;;;;;;4220751;28;20127;-69
2022/03/11 00:48:14;;;;;;;43.90;29.30;;;26.00;96.00;;;;;;4220847;28;20043;-69
2022/03/11 00:50:22;;;;;;;37.38;29.45;;;26.00;95.80;;;;;;4221523;28;20044;-69
2022/03/11 00:52:26;;;;;;;45.75;30.00;;;26.00;95.80;;;;;;4221643;28;20049;-69
2022/03/11 00:54:31;;;;;;;39.30;29.60;;;26.10;95.70;;;;;;4217738;28;20118;-70
2022/03/11 00:56:35;;;;;;;39.28;29.45;;;26.10;95.60;;;;;;4220663;28;20040;-68
2022/03/11 00:58:40;;;;;;;39.38;30.60;;;26.10;95.60;;;;;;4216510;28;20036;-69
2022/03/11 01:00:44;;;;;;;36.58;30.27;;;26.20;95.40;;;;;;4216245;28;20052;-69
2022/03/11 01:02:51;;;;;;;45.22;32.47;;;26.30;95.40;;;;;;4211773;28;20550;-69
2022/03/11 01:04:56;;;;;;;40.15;32.13;;;26.30;95.40;;;;;;4184802;28;20048;-69
2022/03/11 01:07:02;;;;;;;45.85;34.60;;;26.40;95.40;;;;;;4204888;28;20071;-69
2022/03/11 01:09:07;;;;;;;45.22;35.90;;;26.40;95.50;;;;;;4221908;28;20048;-69
2022/03/11 01:11:14;;;;;;;45.72;35.10;;;26.40;95.40;;;;;;4216581;28;20052;-71
2022/03/11 01:13:19;;;;;;;43.47;31.70;;;26.50;95.50;;;;;;4208322;28;20051;-70
2022/03/11 01:15:24;;;;;;;39.65;29.33;;;26.60;95.50;;;;;;4220790;28;20051;-70
2022/03/11 01:17:31;;;;;;;35.42;25.52;;;26.60;95.20;;;;;;4219403;28;20043;-69
2022/03/11 01:19:36;;;;;;;30.83;23.13;;;26.60;95.00;;;;;;4219381;28;20044;-69
2022/03/11 01:21:43;;;;;;;30.95;21.40;;;26.70;94.80;;;;;;4212577;28;20138;-69
2022/03/11 01:23:47;;;;;;;26.80;19.73;;;26.70;94.40;;;;;;4223250;28;20043;-68
2022/03/11 01:25:54;;;;;;;27.50;18.13;;;26.70;94.40;;;;;;4218987;28;20086;-70
2022/03/11 01:28:01;;;;;;;27.85;18.10;;;26.70;94.20;;;;;;4198900;28;20049;-69
2022/03/11 01:30:09;;;;;;;25.35;17.70;;;26.80;94.20;;;;;;4224947;28;20043;-70
2022/03/11 01:32:14;;;;;;;25.60;17.67;;;26.80;94.30;;;;;;4219519;28;20052;-69
2022/03/11 01:34:26;;;;;;;33.20;18.88;;;26.90;93.90;;;;;;4203944;28;20518;-68
2022/03/11 01:36:33;;;;;;;36.58;20.63;;;26.90;93.90;;;;;;4217689;28;20069;-69
2022/03/11 01:38:39;;;;;;;30.10;19.50;;;26.90;93.70;;;;;;4222941;28;20123;-68
2022/03/11 01:40:46;;;;;;;30.88;20.13;;;26.90;93.80;;;;;;4213480;28;20046;-69
2022/03/11 01:42:52;;;;;;;29.13;20.52;;;27.00;93.80;;;;;;4224012;28;20048;-69
2022/03/11 01:44:57;;;;;;;32.05;20.33;;;27.00;94.00;;;;;;4198632;28;20173;-68
2022/03/11 01:47:07;;;;;;;30.95;19.38;;;27.00;93.80;;;;;;4224003;28;20077;-69
2022/03/11 01:49:13;;;;;;;28.40;18.85;;;27.10;93.80;;;;;;4219419;28;20063;-68
2022/03/11 01:51:19;;;;;;;27.48;19.15;;;27.10;93.70;;;;;;4211860;28;20140;-68
2022/03/11 01:53:27;;;;;;;26.33;17.17;;;27.10;93.70;;;;;;4210851;28;20121;-68
2022/03/11 01:55:33;;;;;;;26.55;18.02;;;27.10;93.50;;;;;;4211068;28;20090;-69
2022/03/11 01:57:40;;;;;;;24.55;16.70;;;27.10;93.50;;;;;;4218744;28;20151;-69
2022/03/11 01:59:44;;;;;;;25.90;16.45;;;27.20;93.30;;;;;;4213183;28;20119;-69
2022/03/11 02:01:52;;;;;;;23.60;16.17;;;27.20;93.00;;;;;;4221743;28;20070;-69
2022/03/11 02:03:59;;;;;;;22.48;15.10;;;27.30;92.70;;;;;;4211559;28;20054;-68
2022/03/11 02:06:08;;;;;;;19.60;14.18;;;27.40;92.50;;;;;;4209109;28;20495;-69
2022/03/11 02:08:15;;;;;;;22.77;15.02;;;27.40;92.00;;;;;;4215298;28;20487;-69
2022/03/11 02:10:22;;;;;;;21.48;15.20;;;27.40;92.00;;;;;;4215744;28;20085;-69
2022/03/11 02:12:35;;;;;;;25.02;15.35;;;27.40;92.00;;;;;;4193903;28;20051;-68
2022/03/11 02:14:42;;;;;;;21.10;14.70;;;27.50;92.00;;;;;;4217127;28;20063;-68
2022/03/11 02:16:47;;;;;;;25.23;15.65;;;27.50;91.70;;;;;;4219918;28;20040;-68
2022/03/11 02:18:54;;;;;;;24.88;15.38;;;27.50;91.60;;;;;;4211245;28;20646;-69
2022/03/11 02:21:05;;;;;;;22.83;14.35;;;27.60;91.60;;;;;;4192288;28;20037;-69
2022/03/11 02:23:09;;;;;;;22.55;14.50;;;27.60;91.60;;;;;;4209752;28;20048;-69
2022/03/11 02:25:14;;;;;;;23.58;14.85;;;27.70;91.50;;;;;;4213982;28;20040;-69
2022/03/11 02:27:22;;;;;;;22.08;13.90;;;27.60;91.20;;;;;;4211767;28;20455;-69
2022/03/11 02:29:26;;;;;;;24.95;14.48;;;27.60;91.40;;;;;;4215876;28;20062;-68
2022/03/11 02:31:31;;;;;;;20.40;13.93;;;27.70;91.40;;;;;;4212722;28;20498;-68
2022/03/11 02:33:37;;;;;;;24.10;14.40;;;27.80;91.40;;;;;;4212845;28;20085;-68
2022/03/11 02:35:42;;;;;;;22.15;13.32;;;27.90;91.30;;;;;;4214522;28;20036;-68
2022/03/11 02:37:46;;;;;;;24.38;13.55;;;27.90;91.20;;;;;;4215316;28;20036;-68
2022/03/11 02:39:52;;;;;;;20.50;12.77;;;27.90;90.90;;;;;;4211463;28;20484;-68
2022/03/11 02:41:57;;;;;;;22.33;12.93;;;27.90;91.00;;;;;;4220713;28;20040;-69
2022/03/11 02:44:02;;;;;;;22.17;12.93;;;27.90;91.00;;;;;;4222575;28;20055;-68
2022/03/11 02:46:09;;;;;;;24.25;13.10;;;27.90;91.10;;;;;;4213521;28;20138;-68
2022/03/11 02:48:13;;;;;;;21.23;13.07;;;27.90;91.10;;;;;;4211574;28;20067;-67
2022/03/11 02:50:18;;;;;;;22.55;13.18;;;28.00;91.20;;;;;;4214882;28;20509;-67
2022/03/11 02:52:28;;;;;;;19.52;12.73;;;28.10;91.20;;;;;;4213058;28;20094;-69
2022/03/11 02:54:34;;;;;;;21.48;12.73;;;28.20;91.20;;;;;;4212586;28;20401;-69
2022/03/11 02:56:41;;;;;;;18.88;12.00;;;28.20;90.90;;;;;;4211743;28;20123;-68
2022/03/11 02:58:48;;;;;;;19.92;11.75;;;28.20;90.80;;;;;;4214473;28;20040;-67
2022/03/11 03:00:52;;;;;;;20.90;12.57;;;28.20;90.70;;;;;;4214221;28;20040;-68
2022/03/11 03:02:59;;;;;;;21.58;11.52;;;28.30;90.60;;;;;;4214198;28;20578;-67
2022/03/11 03:05:06;;;;;;;18.67;10.93;;;28.30;90.70;;;;;;4214811;28;20608;-68
2022/03/11 03:07:11;;;;;;;20.42;11.35;;;28.30;90.60;;;;;;4211290;28;20044;-69
2022/03/11 03:09:18;;;;;;;19.45;11.48;;;28.30;90.40;;;;;;4213904;28;20044;-69
2022/03/11 03:11:27;;;;;;;18.23;11.15;;;28.40;90.20;;;;;;4212558;28;20048;-69
2022/03/11 03:13:31;;;;;;;18.92;11.15;;;28.40;90.20;;;;;;4214174;28;20032;-70
2022/03/11 03:15:38;;;;;;;22.10;11.50;;;28.40;90.20;;;;;;4212494;28;20047;-67
2022/03/11 03:17:44;;;;;;;18.85;11.48;;;28.50;90.10;;;;;;4208928;28;20040;-70
2022/03/11 03:19:49;;;;;;;16.73;10.82;;;28.40;90.00;;;;;;4212558;28;20503;-70
2022/03/11 03:21:56;;;;;;;20.08;11.93;;;28.40;89.30;;;;;;4213431;28;20463;-70
2022/03/11 03:24:02;;;;;;;17.67;11.00;;;28.50;89.60;;;;;;4215802;28;20048;-70
2022/03/11 03:26:07;;;;;;;18.30;10.73;;;28.50;89.70;;;;;;4212452;28;20036;-70
2022/03/11 03:28:13;;;;;;;19.13;10.98;;;28.60;89.70;;;;;;4212942;28;20043;-70
2022/03/11 03:30:19;;;;;;;19.60;11.70;;;28.70;89.80;;;;;;4213197;28;20051;-69
2022/03/11 03:32:24;;;;;;;17.42;11.63;;;28.80;89.50;;;;;;4212087;28;20080;-70
2022/03/11 03:34:31;;;;;;;22.08;11.88;;;28.80;89.60;;;;;;4213641;28;20063;-70
2022/03/11 03:36:38;;;;;;;18.15;11.27;;;28.80;89.80;;;;;;4213602;28;20047;-70
2022/03/11 03:38:42;;;;;;;17.08;12.32;;;28.90;89.20;;;;;;4210528;28;20093;-70
2022/03/11 03:40:49;;;;;;;21.15;11.70;;;28.90;89.00;;;;;;4215635;28;20048;-69
2022/03/11 03:42:55;;;;;;;18.25;11.93;;;28.90;88.70;;;;;;4213437;28;20044;-69
2022/03/11 03:45:00;;;;;;;18.92;11.15;;;28.90;88.90;;;;;;4213710;28;20059;-69
2022/03/11 03:47:07;;;;;;;19.55;12.13;;;28.90;89.00;;;;;;4211109;28;20058;-70
2022/03/11 03:49:14;;;;;;;21.50;12.35;;;28.90;89.10;;;;;;4211298;28;20048;-70
2022/03/11 03:51:18;;;;;;;17.65;11.38;;;29.00;89.30;;;;;;4213560;28;20059;-70
2022/03/11 03:53:25;;;;;;;21.63;11.55;;;29.00;89.40;;;;;;4212563;28;20056;-69
2022/03/11 03:55:32;;;;;;;22.20;11.73;;;29.10;89.50;;;;;;4195360;28;20116;-70
2022/03/11 03:57:36;;;;;;;18.85;11.38;;;29.20;89.20;;;;;;4212215;28;20512;-68
2022/03/11 03:59:43;;;;;;;18.73;10.95;;;29.30;88.70;;;;;;4213216;28;20058;-68
2022/03/11 04:01:50;;;;;;;16.02;11.35;;;29.40;88.50;;;;;;4211597;28;20120;-68
2022/03/11 04:03:56;;;;;;;17.92;11.07;;;29.50;89.00;;;;;;4213340;28;20078;-68
2022/03/11 04:06:02;;;;;;;16.67;10.40;;;29.50;89.10;;;;;;4210012;28;20133;-68
2022/03/11 04:08:08;;;;;;;20.85;12.02;;;29.60;88.70;;;;;;4210488;28;20075;-67
2022/03/11 04:10:14;;;;;;;17.13;11.32;;;29.60;88.20;;;;;;4210426;28;20509;-67
2022/03/11 04:12:20;;;;;;;18.73;11.57;;;29.60;89.00;;;;;;4211982;28;20082;-68
2022/03/11 04:14:27;;;;;;;18.58;10.93;;;29.60;88.70;;;;;;4213161;28;20290;-68
2022/03/11 04:16:32;;;;;;;16.92;11.30;;;29.70;88.50;;;;;;4212535;28;20058;-68
2022/03/11 04:18:40;;;;;;;18.52;11.73;;;29.80;88.50;;;;;;4213349;28;20036;-68
2022/03/11 04:20:48;;;;;;;15.15;10.82;;;29.80;88.20;;;;;;4210724;28;20036;-67
2022/03/11 04:22:54;;;;;;;25.25;11.80;;;29.90;88.10;;;;;;4212692;28;20133;-67
2022/03/11 04:24:58;;;;;;;15.77;11.25;;;29.90;87.60;;;;;;4212837;28;20166;-68
2022/03/11 04:27:04;;;;;;;20.25;11.95;;;29.90;87.40;;;;;;4210376;28;20063;-67
2022/03/11 04:29:08;;;;;;;20.48;11.27;;;29.90;87.20;;;;;;4212261;28;20735;-67
2022/03/11 04:31:13;;;;;;;20.67;11.30;;;29.90;87.90;;;;;;4213572;28;20482;-68
2022/03/11 04:33:20;;;;;;;16.33;11.13;;;29.90;87.90;;;;;;4212718;28;20066;-68
2022/03/11 04:35:25;;;;;;;22.13;11.75;;;30.00;87.60;;;;;;4210222;28;20044;-68
2022/03/11 04:37:31;;;;;;;19.85;11.50;;;30.10;87.20;;;;;;4213225;28;20051;-68
2022/03/11 04:39:37;;;;;;;19.58;11.57;;;30.10;87.30;;;;;;4222188;28;20379;-67
2022/03/11 04:41:44;;;;;;;18.15;11.18;;;30.20;87.40;;;;;;4211965;28;20059;-67
2022/03/11 04:43:50;;;;;;;19.27;11.20;;;30.30;87.30;;;;;;4213352;28;20040;-67
2022/03/11 04:45:57;;;;;;;14.75;11.55;;;30.30;87.00;;;;;;4212594;28;20063;-67
2022/03/11 04:48:04;;;;;;;17.55;10.32;;;30.40;87.20;;;;;;4210843;28;20052;-67
2022/03/11 04:50:10;;;;;;;22.48;11.02;;;30.30;87.10;;;;;;4211504;28;20059;-68
2022/03/11 04:52:17;;;;;;;16.65;10.82;;;30.30;86.90;;;;;;4196637;28;20484;-68
2022/03/11 04:54:22;;;;;;;17.30;11.90;;;30.30;86.60;;;;;;4211276;28;20085;-68
2022/03/11 04:56:31;;;;;;;20.05;11.15;;;30.30;87.20;;;;;;4212390;28;20163;-67
2022/03/11 04:58:37;;;;;;;17.67;11.13;;;30.30;87.10;;;;;;4214301;28;20066;-68
2022/03/11 05:00:42;;;;;;;17.52;10.90;;;30.30;87.10;;;;;;4210940;28;20048;-67
2022/03/11 05:02:49;;;;;;;20.05;11.38;;;30.40;86.70;;;;;;4213336;28;20040;-67
2022/03/11 05:04:55;;;;;;;20.65;11.65;;;30.40;87.40;;;;;;4211880;28;20048;-67
2022/03/11 05:07:00;;;;;;;17.40;11.13;;;30.30;87.50;;;;;;4215215;28;20043;-68
2022/03/11 05:09:05;;;;;;;21.05;11.05;;;30.40;87.20;;;;;;4213029;28;20741;-68
2022/03/11 05:11:09;;;;;;;19.17;10.70;;;30.50;87.70;;;;;;4209766;28;20051;-68
2022/03/11 05:13:14;;;;;;;19.20;10.73;;;30.60;87.60;;;;;;4213982;28;20048;-68
2022/03/11 05:15:24;;;;;;;19.85;11.38;;;30.60;87.40;;;;;;4211383;28;20119;-68
2022/03/11 05:17:30;;;;;;;15.70;10.27;;;30.70;86.40;;;;;;4192050;28;20048;-67
2022/03/11 05:19:35;;;;;;;16.25;11.25;;;30.70;86.60;;;;;;4212569;28;20429;-68
2022/03/11 05:21:39;;;;;;;21.50;11.02;;;30.80;86.80;;;;;;4207363;28;20067;-68
2022/03/11 05:23:48;;;;;;;17.48;10.63;;;30.80;86.60;;;;;;4214306;28;20044;-68
2022/03/11 05:25:52;;;;;;;18.88;10.43;;;30.70;86.50;;;;;;4210104;28;20052;-67
2022/03/11 05:28:01;;;;;;;20.27;10.77;;;30.80;86.80;;;;;;4211284;28;20040;-68
2022/03/11 05:30:09;;;;;;;15.48;10.60;;;30.80;86.50;;;;;;4193865;28;20048;-68
2022/03/11 05:32:14;;;;;;;16.65;10.65;;;30.90;86.60;;;;;;4211102;28;20046;-68
2022/03/11 05:34:19;;;;;;;16.70;11.30;;;30.90;86.60;;;;;;4212399;28;20059;-68
2022/03/11 05:36:25;;;;;;;16.38;11.05;;;30.90;86.30;;;;;;4210347;28;20036;-68
2022/03/11 05:38:29;;;;;;;19.38;11.32;;;31.00;86.30;;;;;;4209435;28;20066;-67
2022/03/11 05:40:37;;;;;;;20.23;11.43;;;31.00;85.90;;;;;;4218736;28;20032;-68
2022/03/11 05:42:43;;;;;;;15.93;10.43;;;31.00;86.10;;;;;;4210414;28;20044;-69
2022/03/11 05:44:48;;;;;;;14.98;10.07;;;31.00;85.90;;;;;;4212142;28;20083;-68
2022/03/11 05:46:58;;;;;;;18.40;10.52;;;31.00;86.20;;;;;;4212391;28;20048;-68
2022/03/11 05:49:04;;;;;;;16.58;10.95;;;31.10;86.10;;;;;;4211701;28;20052;-68
2022/03/11 05:51:09;;;;;;;19.30;11.32;;;31.10;85.70;;;;;;4212266;28;20524;-67
2022/03/11 05:53:15;;;;;;;16.48;11.18;;;31.10;84.70;;;;;;4201970;28;20040;-68
2022/03/11 05:55:19;;;;;;;19.13;11.65;;;31.10;85.10;;;;;;4225457;28;20047;-68
2022/03/11 05:57:24;;;;;;;16.45;10.52;;;31.20;85.10;;;;;;4218720;28;20115;-68
2022/03/11 05:59:32;;;;;;;20.25;11.38;;;31.20;84.50;;;;;;4212895;28;20070;-68
2022/03/11 06:01:39;;;;;;;20.58;11.75;;;31.20;85.10;;;;;;4211666;28;20038;-68
2022/03/11 06:03:45;;;;;;;18.25;11.23;;;31.30;85.30;;;;;;4212117;28;20066;-68
2022/03/11 06:05:53;;;;;;;17.30;11.30;;;31.30;84.70;;;;;;4200243;28;20173;-67
2022/03/11 06:08:00;;;;;;;16.35;11.07;;;31.30;85.10;;;;;;4211963;28;20616;-68
2022/03/11 06:10:05;;;;;;;18.42;10.77;;;31.30;84.60;;;;;;4228107;28;20127;-67
2022/03/11 06:12:12;;;;;;;16.63;11.02;;;31.30;84.00;;;;;;4222260;28;20055;-68
2022/03/11 06:14:20;;;;;;;15.90;10.80;;;31.30;84.70;;;;;;4212166;28;20406;-67
2022/03/11 06:16:25;;;;;;;17.23;10.60;;;31.40;84.50;;;;;;4211841;28;20139;-68
2022/03/11 06:18:32;;;;;;;16.30;10.90;;;31.40;84.60;;;;;;4211611;28;20040;-68
2022/03/11 06:20:39;;;;;;;19.67;11.73;;;31.40;84.40;;;;;;4192523;28;20052;-68
2022/03/11 06:22:47;;;;;;;17.10;11.48;;;31.40;83.70;;;;;;4210494;28;20044;-67
2022/03/11 06:24:53;;;;;;;17.23;10.48;;;31.40;83.90;;;;;;4210279;28;20537;-68
2022/03/11 06:27:00;;;;;;;17.23;12.15;;;31.50;85.00;;;;;;4211728;28;20048;-67
2022/03/11 06:29:04;;;;;;;18.35;11.07;;;31.50;84.10;;;;;;4212650;28;20051;-68
2022/03/11 06:31:11;;;;;;;14.27;10.55;;;31.50;84.30;;;;;;4210312;28;20096;-68
2022/03/11 06:33:17;;;;;;;15.80;11.07;;;31.60;84.40;;;;;;4210464;28;20043;-68
2022/03/11 06:35:22;;;;;;;15.95;10.95;;;31.60;84.00;;;;;;4209952;28;20036;-68
2022/03/11 06:37:26;;;;;;;17.77;10.57;;;31.60;83.60;;;;;;4211582;28;20513;-68
2022/03/11 06:39:32;;;;;;;19.20;10.38;;;31.70;83.30;;;;;;4211049;28;20529;-68
2022/03/11 06:41:37;;;;;;;15.80;10.98;;;31.70;83.70;;;;;;4211573;28;20470;-67
2022/03/11 06:43:44;;;;;;;16.20;10.80;;;31.70;82.80;;;;;;4209172;28;20115;-68
2022/03/11 06:45:55;;;;;;;16.67;11.25;;;31.80;82.10;;;;;;4211336;28;20086;-68
2022/03/11 06:48:00;;;;;;;17.55;11.10;;;31.80;81.70;;;;;;4209992;28;20109;-68
2022/03/11 06:50:07;;;;;;;13.05;10.32;;;31.80;81.30;;;;;;4205705;28;20044;-68
2022/03/11 06:52:14;;;;;;;17.77;10.82;;;31.90;81.50;;;;;;4210291;28;20047;-68
2022/03/11 06:54:19;;;;;;;15.60;10.15;;;31.90;80.90;;;;;;4211916;28;20658;-68
2022/03/11 06:56:26;;;;;;;20.52;10.75;;;31.80;80.20;;;;;;4209192;28;20714;-68
2022/03/11 06:58:35;;;;;;;16.17;11.10;;;31.80;80.40;;;;;;4212156;28;20071;-67
2022/03/11 07:00:39;;;;;;;16.95;11.55;;;31.80;80.30;;;;;;4208657;28;20123;-68
2022/03/11 07:02:46;;;;;;;17.15;11.68;;;31.80;80.70;;;;;;4209207;28;20044;-68
2022/03/11 07:04:53;;;;;;;14.27;10.40;;;31.80;79.80;;;;;;4211261;28;20075;-67
2022/03/11 07:06:58;;;;;;;15.10;10.40;;;31.80;80.40;;;;;;4212834;28;20643;-68
2022/03/11 07:09:03;;;;;;;14.65;10.15;;;31.80;80.70;;;;;;4208760;28;20040;-68
2022/03/11 07:11:10;;;;;;;13.73;10.38;;;31.90;80.50;;;;;;4211196;28;20036;-68
2022/03/11 07:13:14;;;;;;;17.00;10.02;;;31.90;80.30;;;;;;4212061;28;20455;-68
2022/03/11 07:15:22;;;;;;;16.30;10.40;;;32.00;80.00;;;;;;4215163;28;20044;-69
2022/03/11 07:17:28;;;;;;;13.13;9.75;;;32.00;79.60;;;;;;4212512;28;20055;-68
2022/03/11 07:19:34;;;;;;;15.27;11.23;;;32.00;80.10;;;;;;4208210;28;20040;-68
2022/03/11 07:21:40;;;;;;;16.48;10.93;;;32.00;78.90;;;;;;4194112;28;20045;-68
2022/03/11 07:23:51;;;;;;;13.32;10.30;;;32.00;78.80;;;;;;4218150;28;20078;-68
2022/03/11 07:25:56;;;;;;;13.32;10.30;;;32.00;79.10;;;;;;4212396;28;20113;-68
2022/03/11 07:28:03;;;;;;;16.35;11.40;;;32.10;79.10;;;;;;4220809;28;20050;-68
2022/03/11 07:30:11;;;;;;;13.60;10.27;;;32.10;79.10;;;;;;4221182;28;20525;-68
2022/03/11 07:32:17;;;;;;;13.80;10.65;;;32.10;78.80;;;;;;4215054;28;20421;-67
2022/03/11 07:34:26;;;;;;;13.30;10.63;;;32.10;78.60;;;;;;4215265;28;20506;-68
2022/03/11 07:36:34;;;;;;;15.60;11.05;;;32.10;78.10;;;;;;4213561;28;20040;-68
2022/03/11 07:38:38;;;;;;;17.85;10.90;;;32.10;77.40;;;;;;4212104;28;20067;-67
2022/03/11 07:40:45;;;;;;;15.32;11.10;;;32.10;77.30;;;;;;4212320;28;20554;-68
2022/03/11 07:42:52;;;;;;;15.98;11.10;;;32.10;77.80;;;;;;4213046;28;20115;-69
2022/03/11 07:44:57;;;;;;;16.00;11.70;;;32.10;77.30;;;;;;4223913;28;20046;-69
2022/03/11 07:47:04;;;;;;;17.52;11.27;;;32.10;77.00;;;;;;4222454;28;20058;-68
2022/03/11 07:49:11;;;;;;;13.80;10.90;;;32.10;75.30;;;;;;4230790;28;20093;-68
2022/03/11 07:51:16;;;;;;;18.40;11.18;;;32.00;76.50;;;;;;4215835;28;20071;-68
2022/03/11 07:53:22;;;;;;;13.52;10.32;;;32.10;76.50;;;;;;4195978;28;20059;-68
2022/03/11 07:55:28;;;;;;;15.48;11.27;;;32.00;75.40;;;;;;4222746;28;20063;-69
2022/03/11 07:57:36;;;;;;;16.13;10.90;;;32.00;76.20;;;;;;4230879;28;20138;-68
2022/03/11 07:59:42;;;;;;;15.25;10.90;;;32.00;76.40;;;;;;4222833;28;20040;-68
2022/03/11 08:01:49;;;;;;;16.85;10.43;;;32.10;76.60;;;;;;4198404;28;20048;-68
2022/03/11 08:03:54;;;;;;;15.07;10.95;;;32.10;76.60;;;;;;4211864;28;20073;-68
2022/03/11 08:06:01;;;;;;;15.85;11.05;;;32.10;76.80;;;;;;4213888;28;20081;-69
2022/03/11 08:08:09;;;;;;;14.57;10.30;;;32.20;76.80;;;;;;4205447;28;20044;-68
2022/03/11 08:10:13;;;;;;;14.05;10.40;;;32.20;75.90;;;;;;4217816;28;20170;-68
2022/03/11 08:12:17;;;;;;;14.05;10.85;;;32.20;75.90;;;;;;4210639;28;20077;-69
2022/03/11 08:14:23;;;;;;;14.75;10.60;;;32.20;75.90;;;;;;4219140;28;20092;-68
2022/03/11 08:16:30;;;;;;;16.50;10.38;;;32.20;75.70;;;;;;4222443;28;20131;-68
2022/03/11 08:18:37;;;;;;;19.05;11.55;;;32.20;75.90;;;;;;4210371;28;20075;-69
2022/03/11 08:20:44;;;;;;;20.15;11.88;;;32.20;75.90;;;;;;4216791;28;20046;-70
2022/03/11 08:22:51;;;;;;;17.23;10.85;;;32.30;76.00;;;;;;4219054;28;20051;-68
2022/03/11 08:24:58;;;;;;;15.93;11.30;;;32.30;76.20;;;;;;4210829;28;20367;-69
2022/03/11 08:27:02;;;;;;;15.48;10.50;;;32.30;76.20;;;;;;4198799;28;20044;-69
2022/03/11 08:29:07;;;;;;;19.45;10.48;;;32.30;76.50;;;;;;4213384;28;20079;-68
2022/03/11 08:31:26;;;;;;;13.63;10.80;;;32.30;76.50;;;;;;4193937;28;20094;-68
2022/03/11 08:33:32;;;;;;;16.33;11.07;;;32.40;76.60;;;;;;4210557;28;20140;-69
2022/03/11 08:35:48;;;;;;;19.80;11.82;;;32.40;76.70;;;;;;4209395;28;20036;-68
2022/03/11 08:38:12;;;;;;;14.68;11.10;;;32.40;76.60;;;;;;4214508;28;20069;-69
2022/03/11 08:40:22;;;;;;;17.58;10.98;;;32.40;76.20;;;;;;4207235;28;20075;-69
2022/03/11 08:42:27;;;;;;;15.25;10.90;;;32.40;76.30;;;;;;4211303;28;20814;-69
2022/03/11 08:44:31;;;;;;;17.35;11.57;;;32.40;76.40;;;;;;4211592;28;20066;-69
2022/03/11 08:46:38;;;;;;;16.42;10.52;;;32.40;76.80;;;;;;4209975;28;20072;-68
2022/03/11 08:48:43;;;;;;;19.20;11.23;;;32.40;76.90;;;;;;4210710;28;20055;-68
2022/03/11 08:50:49;;;;;;;15.38;10.15;;;32.40;77.30;;;;;;4210899;28;20046;-68
2022/03/11 08:53:02;;;;;;;14.55;10.60;;;32.40;77.50;;;;;;4211491;28;20483;-68
2022/03/11 08:55:07;;;;;;;15.77;10.77;;;32.50;77.30;;;;;;4216171;28;20055;-70
2022/03/11 08:57:12;;;;;;;14.80;10.75;;;32.50;77.30;;;;;;4210849;28;20131;-69
2022/03/11 08:59:18;;;;;;;14.70;10.57;;;32.40;76.90;;;;;;4216804;28;20044;-68
2022/03/11 09:01:23;;;;;;;12.65;10.32;;;32.40;76.60;;;;;;4213592;28;20055;-69
2022/03/11 09:03:30;;;;;;;14.40;10.50;;;32.40;76.60;;;;;;4203631;28;20528;-69
2022/03/11 09:05:39;;;;;;;16.90;10.38;;;32.40;76.60;;;;;;4196802;28;20109;-69
2022/03/11 09:07:44;;;;;;;15.55;11.05;;;32.40;76.70;;;;;;4214264;28;20758;-69
2022/03/11 09:09:51;;;;;;;12.65;9.75;;;32.40;76.50;;;;;;4209628;28;20040;-68
2022/03/11 09:11:58;;;;;;;16.83;10.43;;;32.30;76.60;;;;;;4212295;28;20040;-69
2022/03/11 09:14:02;;;;;;;13.98;9.77;;;32.30;76.90;;;;;;4194944;28;20052;-68
2022/03/11 09:16:07;;;;;;;16.13;10.10;;;32.40;77.20;;;;;;4210210;28;20048;-69
2022/03/11 09:18:18;;;;;;;15.15;10.55;;;32.30;77.30;;;;;;4215400;28;20160;-68
2022/03/11 09:20:22;;;;;;;14.73;10.20;;;32.30;77.10;;;;;;4193287;28;20106;-67
2022/03/11 09:22:34;;;;;;;14.00;10.32;;;32.30;77.20;;;;;;4211496;28;20122;-68
2022/03/11 09:24:41;;;;;;;14.93;10.85;;;32.30;77.10;;;;;;4211602;28;20044;-67
2022/03/11 09:26:47;;;;;;;13.68;10.13;;;32.30;77.60;;;;;;4209479;28;20513;-69
2022/03/11 09:28:56;;;;;;;14.02;10.23;;;32.40;77.70;;;;;;4209482;28;20032;-69
2022/03/11 09:31:08;;;;;;;16.92;10.10;;;32.40;77.60;;;;;;4208969;28;20052;-69
2022/03/11 09:33:13;;;;;;;14.87;9.87;;;32.40;77.30;;;;;;4209236;28;20048;-69
2022/03/11 09:35:19;;;;;;;13.48;10.05;;;32.40;77.50;;;;;;4208659;28;20040;-70
2022/03/11 09:37:24;;;;;;;13.10;9.85;;;32.40;77.40;;;;;;4208143;28;20555;-70
2022/03/11 09:39:29;;;;;;;14.85;10.20;;;32.40;77.40;;;;;;4211203;28;20059;-69
2022/03/11 09:41:36;;;;;;;17.50;9.82;;;32.40;77.20;;;;;;4196820;28;20063;-68
2022/03/11 09:43:44;;;;;;;13.85;9.85;;;32.40;77.30;;;;;;4211448;28;20131;-69
2022/03/11 09:45:48;;;;;;;15.55;9.88;;;32.40;77.30;;;;;;4209068;28;20532;-68
2022/03/11 09:47:55;;;;;;;13.80;10.02;;;32.40;77.50;;;;;;4209263;28;20486;-69
2022/03/11 09:50:05;;;;;;;17.33;10.27;;;32.40;77.70;;;;;;4216500;28;20109;-69
2022/03/11 09:52:09;;;;;;;13.02;10.15;;;32.40;77.40;;;;;;4212424;28;20052;-68
2022/03/11 09:54:14;;;;;;;14.73;10.70;;;32.40;77.60;;;;;;4179178;28;20051;-68
2022/03/11 09:56:20;;;;;;;12.80;10.20;;;32.40;77.50;;;;;;4211127;28;20054;-69
2022/03/11 09:58:24;;;;;;;14.13;10.43;;;32.30;77.80;;;;;;4212550;28;20043;-70
2022/03/11 10:00:33;;;;;;;13.50;10.48;;;32.30;78.20;;;;;;4195466;28;20124;-69
2022/03/11 10:02:46;;;;;;;13.93;10.60;;;32.30;78.70;;;;;;4210816;28;20051;-68
2022/03/11 10:04:52;;;;;;;13.23;9.98;;;32.30;78.70;;;;;;4213656;28;20065;-68
2022/03/11 10:07:29;;;;;;;14.75;10.52;;;32.30;78.80;;;;;;4193336;28;20440;-69
2022/03/11 10:09:35;;;;;;;16.85;10.93;;;32.30;78.50;;;;;;4192125;28;20055;-69
2022/03/11 10:11:39;;;;;;;15.02;10.55;;;32.30;78.50;;;;;;4191648;28;20123;-69
2022/03/11 10:13:44;;;;;;;14.10;10.60;;;32.30;78.50;;;;;;4192856;28;20063;-68
2022/03/11 10:15:50;;;;;;;14.60;11.20;;;32.20;78.70;;;;;;4192416;28;20089;-69
2022/03/11 10:17:55;;;;;;;17.15;11.05;;;32.20;78.80;;;;;;4170649;28;20041;-69
2022/03/11 10:20:02;;;;;;;16.45;10.40;;;32.20;79.00;;;;;;4192240;28;20478;-69
2022/03/11 10:22:09;;;;;;;18.10;11.65;;;32.20;79.10;;;;;;4190740;28;20040;-69
2022/03/11 10:24:29;;;;;;;16.98;11.95;;;32.10;79.30;;;;;;4192978;28;20040;-68
2022/03/11 10:26:40;;;;;;;13.98;10.38;;;32.10;79.50;;;;;;4180193;28;20072;-67
2022/03/11 10:28:56;;;;;;;18.67;11.13;;;32.10;79.60;;;;;;4190594;28;20041;-67
2022/03/11 10:31:09;;;;;;;16.35;10.63;;;32.00;79.60;;;;;;4190713;28;20147;-67
2022/03/11 10:33:14;;;;;;;14.40;10.85;;;32.00;79.60;;;;;;4194298;28;20078;-68
2022/03/11 10:35:19;;;;;;;15.98;10.95;;;32.00;79.60;;;;;;4191418;28;20044;-70
2022/03/11 10:37:25;;;;;;;14.88;10.30;;;32.00;79.70;;;;;;4193574;28;20043;-69
2022/03/11 10:39:38;;;;;;;17.60;11.13;;;31.90;79.70;;;;;;4181446;28;20151;-69
2022/03/11 10:41:45;;;;;;;17.00;10.68;;;31.80;80.00;;;;;;4192581;28;20037;-68
2022/03/11 10:43:50;;;;;;;16.48;10.98;;;31.80;80.20;;;;;;4192114;28;20045;-68